Time,TemperatureF,DewpointF,PressureIn,WindDirection,WindDirectionDegrees,WindSpeedMPH,WindSpeedGustMPH,Humidity,HourlyPrecipIn,Conditions,Clouds,dailyrainin,SolarRadiationWatts/m^2,SoftwareType,DateUTC
2013-05-17 00:01:00,46.0,40.0,-100.00,NW,307,2.0,6.0,79,0.00,,,0.02,0.000000,,2013-05-17 06:01:00,
2013-05-17 00:11:00,46.0,40.0,-100.00,NW,307,2.0,6.0,79,0.00,,,0.02,0.000000,,2013-05-17 06:11:00,
2013-05-17 00:42:00,45.0,40.0,-100.00,ESE,122,3.0,4.0,84,0.00,,,0.02,0.000000,,2013-05-17 06:42:00,
2013-05-17 00:52:00,45.0,40.0,-100.00,ESE,122,3.0,4.0,84,0.00,,,0.02,0.000000,,2013-05-17 06:52:00,
2013-05-17 01:02:00,45.0,40.0,-100.00,ESE,122,3.0,4.0,84,0.00,,,0.02,0.000000,,2013-05-17 07:02:00,
2013-05-17 01:11:00,45.0,40.0,-100.00,ESE,122,3.0,4.0,84,0.00,,,0.02,0.000000,,2013-05-17 07:11:00,
2013-05-17 01:43:00,43.0,40.0,-100.00,WNW,296,1.0,5.0,89,0.00,,,0.02,0.000000,,2013-05-17 07:43:00,
2013-05-17 01:53:00,43.0,40.0,-100.00,WNW,296,1.0,5.0,89,0.00,,,0.02,0.000000,,2013-05-17 07:53:00,
2013-05-17 02:02:00,43.0,40.0,-100.00,WNW,296,1.0,5.0,89,0.00,,,0.02,0.000000,,2013-05-17 08:02:00,
2013-05-17 02:12:00,43.0,40.0,-100.00,WNW,296,1.0,5.0,89,0.00,,,0.02,0.000000,,2013-05-17 08:12:00,
2013-05-17 02:43:00,43.0,41.0,-100.00,ESE,106,0.0,0.0,93,0.00,,,0.02,0.000000,,2013-05-17 08:43:00,
2013-05-17 02:52:00,43.0,41.0,-100.00,ESE,106,0.0,0.0,93,0.00,,,0.02,0.000000,,2013-05-17 08:52:00,
2013-05-17 03:02:00,43.0,41.0,-100.00,ESE,106,0.0,0.0,93,0.00,,,0.02,0.000000,,2013-05-17 09:02:00,
2013-05-17 03:12:00,43.0,41.0,-100.00,ESE,106,0.0,0.0,93,0.00,,,0.02,0.000000,,2013-05-17 09:12:00,
2013-05-17 03:33:00,44.0,41.0,-100.00,SW,227,1.0,4.0,88,0.00,,,0.02,0.000000,,2013-05-17 09:33:00,
2013-05-17 03:42:00,44.0,41.0,-100.00,SW,227,1.0,4.0,88,0.00,,,0.02,0.000000,,2013-05-17 09:42:00,
2013-05-17 03:53:00,44.0,41.0,-100.00,SW,227,1.0,4.0,88,0.00,,,0.02,0.000000,,2013-05-17 09:53:00,
2013-05-17 04:03:00,44.0,41.0,-100.00,SW,227,1.0,4.0,88,0.00,,,0.02,0.000000,,2013-05-17 10:03:00,
2013-05-17 04:12:00,44.0,41.0,-100.00,SW,227,1.0,4.0,88,0.00,,,0.02,0.000000,,2013-05-17 10:12:00,
2013-05-17 04:42:00,43.0,40.0,-100.00,SE,140,0.0,4.0,90,0.00,,,0.02,0.000000,,2013-05-17 10:42:00,
2013-05-17 04:54:00,43.0,40.0,-100.00,SE,140,0.0,4.0,90,0.00,,,0.02,0.000000,,2013-05-17 10:54:00,
2013-05-17 05:02:00,43.0,40.0,-100.00,SE,140,0.0,4.0,90,0.00,,,0.02,0.000000,,2013-05-17 11:02:00,
2013-05-17 05:12:00,43.0,40.0,-100.00,SE,140,0.0,4.0,90,0.00,,,0.02,0.000000,,2013-05-17 11:12:00,
2013-05-17 05:34:00,43.0,41.0,-100.00,West,267,3.0,4.0,93,0.00,,,0.02,0.000000,,2013-05-17 11:34:00,
2013-05-17 05:42:00,43.0,41.0,-100.00,West,267,3.0,4.0,93,0.00,,,0.02,0.000000,,2013-05-17 11:42:00,
2013-05-17 05:53:00,43.0,41.0,-100.00,West,267,3.0,4.0,93,0.00,,,0.02,0.000000,,2013-05-17 11:53:00,
2013-05-17 06:02:00,43.0,41.0,-100.00,West,267,3.0,4.0,93,0.00,,,0.02,0.000000,,2013-05-17 12:02:00,
2013-05-17 06:12:00,43.0,41.0,-100.00,West,267,3.0,4.0,93,0.00,,,0.02,0.000000,,2013-05-17 12:12:00,
2013-05-17 06:33:00,42.0,40.0,-100.00,ESE,111,2.0,4.0,92,0.00,,,0.02,2.000000,,2013-05-17 12:33:00,
2013-05-17 06:43:00,42.0,40.0,-100.00,ESE,111,2.0,4.0,92,0.00,,,0.02,2.000000,,2013-05-17 12:43:00,
2013-05-17 06:53:00,42.0,40.0,-100.00,ESE,111,2.0,4.0,92,0.00,,,0.02,2.000000,,2013-05-17 12:53:00,
2013-05-17 07:03:00,42.0,40.0,-100.00,ESE,111,2.0,4.0,92,0.00,,,0.02,2.000000,,2013-05-17 13:03:00,
2013-05-17 07:12:00,42.0,40.0,-100.00,ESE,111,2.0,4.0,92,0.00,,,0.02,2.000000,,2013-05-17 13:12:00,
2013-05-17 07:33:00,45.0,41.0,-100.00,South,184,0.0,3.0,87,0.00,,,0.02,34.000000,,2013-05-17 13:33:00,
2013-05-17 07:42:00,45.0,41.0,-100.00,South,184,0.0,3.0,87,0.00,,,0.02,34.000000,,2013-05-17 13:42:00,
2013-05-17 07:52:00,45.0,41.0,-100.00,South,184,0.0,3.0,87,0.00,,,0.02,34.000000,,2013-05-17 13:52:00,
2013-05-17 08:02:00,45.0,41.0,-100.00,South,184,0.0,3.0,87,0.00,,,0.02,34.000000,,2013-05-17 14:02:00,
2013-05-17 08:12:00,45.0,41.0,-100.00,South,184,0.0,3.0,87,0.00,,,0.02,34.000000,,2013-05-17 14:12:00,
2013-05-17 08:43:00,46.0,41.0,-100.00,WNW,296,0.0,4.0,83,0.00,,,0.02,40.000000,,2013-05-17 14:43:00,
2013-05-17 08:53:00,46.0,41.0,-100.00,WNW,296,0.0,4.0,83,0.00,,,0.02,40.000000,,2013-05-17 14:53:00,
2013-05-17 09:03:00,46.0,41.0,-100.00,WNW,296,0.0,4.0,83,0.00,,,0.02,40.000000,,2013-05-17 15:03:00,
2013-05-17 09:13:00,46.0,41.0,-100.00,WNW,296,0.0,4.0,83,0.00,,,0.02,40.000000,,2013-05-17 15:13:00,
2013-05-17 09:47:00,47.0,41.0,-100.00,ESE,105,1.0,4.0,80,0.00,,,0.02,101.000000,,2013-05-17 15:47:00,
2013-05-17 09:57:00,47.0,41.0,-100.00,ESE,105,1.0,4.0,80,0.00,,,0.02,101.000000,,2013-05-17 15:57:00,
2013-05-17 10:07:00,47.0,41.0,-100.00,ESE,105,1.0,4.0,80,0.00,,,0.02,101.000000,,2013-05-17 16:07:00,
2013-05-17 10:13:00,47.0,41.0,-100.00,ESE,105,1.0,4.0,80,0.00,,,0.02,101.000000,,2013-05-17 16:13:00,
2013-05-17 10:14:00,52.0,46.0,-100.00,NNW,345,2.0,5.0,81,0.01,,,-99.99,263.000000,,2013-05-17 16:14:00,
2013-05-17 10:37:00,52.0,46.0,-100.00,NNW,345,2.0,5.0,81,0.01,,,-99.99,263.000000,,2013-05-17 16:37:00,
2013-05-17 10:49:00,52.0,46.0,-100.00,NNW,345,2.0,5.0,81,0.01,,,-99.99,263.000000,,2013-05-17 16:49:00,
2013-05-17 10:56:00,52.0,46.0,-100.00,NNW,345,2.0,5.0,81,0.01,,,-99.99,263.000000,,2013-05-17 16:56:00,
2013-05-17 11:08:00,52.0,46.0,-100.00,NNW,345,2.0,5.0,81,0.01,,,-99.99,263.000000,,2013-05-17 17:08:00,
2013-05-17 11:14:00,53.0,44.0,-100.00,NW,312,2.0,5.0,72,0.00,,,0.01,327.000000,,2013-05-17 17:14:00,
2013-05-17 11:40:00,53.0,-99.9,-100.00,NW,312,2.0,5.0,72,0.00,,,0.01,327.000000,,2013-05-17 17:40:00,
2013-05-17 11:49:00,53.0,44.0,-100.00,NW,312,2.0,5.0,72,0.00,,,0.01,327.000000,,2013-05-17 17:49:00,
2013-05-17 12:00:00,53.0,44.0,-100.00,NW,312,2.0,5.0,72,0.00,,,0.01,327.000000,,2013-05-17 18:00:00,
2013-05-17 12:08:00,53.0,44.0,-100.00,NW,312,2.0,5.0,72,0.00,,,0.01,327.000000,,2013-05-17 18:08:00,
2013-05-17 12:14:00,51.0,45.0,-100.00,ENE,62,2.0,6.0,80,0.01,,,0.02,192.000000,,2013-05-17 18:14:00,
2013-05-17 12:50:00,-999.0,-99.9,-100.00,ENE,62,2.0,6.0,80,0.01,,,0.02,192.000000,,2013-05-17 18:50:00,
2013-05-17 13:00:00,51.0,45.0,-100.00,ENE,62,2.0,6.0,80,0.01,,,0.02,192.000000,,2013-05-17 19:00:00,
2013-05-17 13:10:00,51.0,45.0,-100.00,ENE,62,2.0,6.0,80,0.01,,,0.02,192.000000,,2013-05-17 19:10:00,
2013-05-17 13:14:00,51.0,46.0,-100.00,ESE,120,2.0,4.0,83,0.04,,,0.06,209.000000,,2013-05-17 19:14:00,
2013-05-17 13:40:00,51.0,46.0,-100.00,ESE,120,2.0,4.0,83,0.04,,,0.06,209.000000,,2013-05-17 19:40:00,
2013-05-17 13:51:00,51.0,46.0,-100.00,ESE,120,2.0,4.0,83,0.04,,,0.06,209.000000,,2013-05-17 19:51:00,
2013-05-17 14:00:00,51.0,-99.9,-100.00,ESE,120,2.0,4.0,83,0.04,,,0.06,209.000000,,2013-05-17 20:00:00,
2013-05-17 14:09:00,51.0,46.0,-100.00,ESE,120,2.0,4.0,83,0.04,,,0.06,209.000000,,2013-05-17 20:09:00,
2013-05-17 14:14:00,53.0,47.0,-100.00,NW,316,1.0,4.0,81,0.01,,,-99.99,286.000000,,2013-05-17 20:14:00,
2013-05-17 14:50:00,53.0,47.0,-100.00,NW,316,1.0,4.0,81,0.01,,,-99.99,286.000000,,2013-05-17 20:50:00,
2013-05-17 14:58:00,53.0,47.0,-100.00,NW,316,1.0,4.0,81,0.01,,,-99.99,286.000000,,2013-05-17 20:58:00,
2013-05-17 15:07:00,53.0,47.0,-100.00,NW,316,1.0,4.0,81,0.01,,,-99.99,286.000000,,2013-05-17 21:07:00,
2013-05-17 15:14:00,54.0,49.0,-100.00,NNW,340,2.0,6.0,83,0.00,,,0.07,245.000000,,2013-05-17 21:14:00,
2013-05-17 15:39:00,54.0,49.0,-100.00,NNW,340,2.0,6.0,83,0.00,,,0.07,245.000000,,2013-05-17 21:39:00,
2013-05-17 15:49:00,54.0,49.0,-100.00,NNW,340,2.0,6.0,83,0.00,,,0.07,245.000000,,2013-05-17 21:49:00,
2013-05-17 15:58:00,54.0,49.0,-100.00,NNW,340,2.0,6.0,83,0.00,,,0.07,245.000000,,2013-05-17 21:58:00,
2013-05-17 16:06:00,54.0,49.0,-100.00,NNW,340,2.0,6.0,83,0.00,,,0.07,245.000000,,2013-05-17 22:06:00,
2013-05-17 16:38:00,54.0,46.0,-100.00,West,280,2.0,7.0,74,0.00,,,0.07,129.000000,,2013-05-17 22:38:00,
2013-05-17 16:47:00,54.0,46.0,-100.00,West,280,2.0,7.0,74,0.00,,,0.07,129.000000,,2013-05-17 22:47:00,
2013-05-17 16:55:00,54.0,46.0,-100.00,West,280,2.0,7.0,74,0.00,,,0.07,129.000000,,2013-05-17 22:55:00,
2013-05-17 17:04:00,54.0,46.0,-100.00,West,280,2.0,7.0,74,0.00,,,0.07,129.000000,,2013-05-17 23:04:00,
2013-05-17 17:12:00,54.0,46.0,-100.00,West,280,2.0,7.0,74,0.00,,,0.07,129.000000,,2013-05-17 23:12:00,
2013-05-17 17:38:00,53.0,47.0,-100.00,WNW,289,2.0,5.0,79,0.00,,,0.07,124.000000,,2013-05-17 23:38:00,
2013-05-17 17:47:00,53.0,47.0,-100.00,WNW,289,2.0,5.0,79,0.00,,,0.07,124.000000,,2013-05-17 23:47:00,
2013-05-17 17:54:00,53.0,47.0,-100.00,WNW,289,2.0,5.0,79,0.00,,,0.07,124.000000,,2013-05-17 23:54:00,
2013-05-17 18:02:00,53.0,47.0,-100.00,WNW,289,2.0,5.0,79,0.00,,,0.07,124.000000,,2013-05-18 00:02:00,
2013-05-17 18:13:00,53.0,47.0,-100.00,WNW,289,2.0,5.0,79,0.00,,,0.07,124.000000,,2013-05-18 00:13:00,
2013-05-17 18:34:00,53.0,46.0,-100.00,South,169,2.0,3.0,78,0.02,,,0.09,138.000000,,2013-05-18 00:34:00,
2013-05-17 18:45:00,53.0,46.0,-100.00,South,169,2.0,3.0,78,0.02,,,0.09,138.000000,,2013-05-18 00:45:00,
2013-05-17 18:54:00,53.0,46.0,-100.00,South,169,2.0,3.0,78,0.02,,,0.09,138.000000,,2013-05-18 00:54:00,
2013-05-17 19:02:00,53.0,46.0,-100.00,South,169,2.0,3.0,78,0.02,,,0.09,138.000000,,2013-05-18 01:02:00,
2013-05-17 19:13:00,53.0,46.0,-100.00,South,169,2.0,3.0,78,0.02,,,0.09,138.000000,,2013-05-18 01:13:00,
2013-05-17 19:32:00,53.0,48.0,-100.00,SSE,161,3.0,6.0,83,0.00,,,0.09,119.000000,,2013-05-18 01:32:00,
2013-05-17 19:43:00,53.0,48.0,-100.00,SSE,161,3.0,6.0,83,0.00,,,0.09,119.000000,,2013-05-18 01:43:00,
2013-05-17 19:52:00,53.0,48.0,-100.00,SSE,161,3.0,6.0,83,0.00,,,0.09,119.000000,,2013-05-18 01:52:00,
2013-05-17 20:02:00,53.0,48.0,-100.00,SSE,161,3.0,6.0,83,0.00,,,0.09,119.000000,,2013-05-18 02:02:00,
2013-05-17 20:11:00,53.0,48.0,-100.00,SSE,161,3.0,6.0,83,0.00,,,0.09,119.000000,,2013-05-18 02:11:00,
2013-05-17 20:43:00,52.0,46.0,-100.00,SE,145,1.0,5.0,81,0.00,,,0.09,39.000000,,2013-05-18 02:43:00,
2013-05-17 20:53:00,52.0,46.0,-100.00,SE,145,1.0,5.0,81,0.00,,,0.09,39.000000,,2013-05-18 02:53:00,
2013-05-17 21:02:00,52.0,46.0,-100.00,SE,145,1.0,5.0,81,0.00,,,0.09,39.000000,,2013-05-18 03:02:00,
2013-05-17 21:12:00,52.0,46.0,-100.00,SE,145,1.0,5.0,81,0.00,,,0.09,39.000000,,2013-05-18 03:12:00,
2013-05-17 21:33:00,51.0,46.0,-100.00,South,169,0.0,5.0,82,0.00,,,0.09,7.000000,,2013-05-18 03:33:00,
2013-05-17 21:43:00,51.0,46.0,-100.00,South,169,0.0,5.0,82,0.00,,,0.09,7.000000,,2013-05-18 03:43:00,
2013-05-17 21:53:00,51.0,46.0,-100.00,South,169,0.0,5.0,82,0.00,,,0.09,7.000000,,2013-05-18 03:53:00,
2013-05-17 22:02:00,51.0,46.0,-100.00,South,169,0.0,5.0,82,0.00,,,0.09,7.000000,,2013-05-18 04:02:00,
2013-05-17 22:12:00,51.0,46.0,-100.00,South,169,0.0,5.0,82,0.00,,,0.09,7.000000,,2013-05-18 04:12:00,
2013-05-17 22:33:00,49.0,46.0,-100.00,East,96,2.0,3.0,88,0.00,,,0.09,0.000000,,2013-05-18 04:33:00,
2013-05-17 22:43:00,49.0,46.0,-100.00,East,96,2.0,3.0,88,0.00,,,0.09,0.000000,,2013-05-18 04:43:00,
2013-05-17 22:52:00,49.0,46.0,-100.00,East,96,2.0,3.0,88,0.00,,,0.09,0.000000,,2013-05-18 04:52:00,
2013-05-17 23:02:00,49.0,46.0,-100.00,East,96,2.0,3.0,88,0.00,,,0.09,0.000000,,2013-05-18 05:02:00,
2013-05-17 23:12:00,49.0,46.0,-100.00,East,96,2.0,3.0,88,0.00,,,0.09,0.000000,,2013-05-18 05:12:00,
2013-05-17 23:32:00,49.0,47.0,-100.00,NW,305,0.0,0.0,92,0.00,,,0.09,0.000000,,2013-05-18 05:32:00,
2013-05-17 23:42:00,49.0,47.0,-100.00,NW,305,0.0,0.0,92,0.00,,,0.09,0.000000,,2013-05-18 05:42:00,
2013-05-17 23:52:00,49.0,47.0,-100.00,NW,305,0.0,0.0,92,0.00,,,0.09,0.000000,,2013-05-18 05:52:00,